Time;durP1;ratioP1;P1;durP2;ratioP2;P2;SDS_P1;SDS_P2;PMS_P1;PMS_P2;Temp;Humidity;BMP_temperature;BMP_pressure;BME280_temperature;BME280_humidity;BME280_pressure;Samples;Min_cycle;Max_cycle;Signal;HPM_P1;HPM_P2
2023/01/01 00:01:09;;;;;;;53.63;26.63;;;;;;;-143.48;63.22;118439.88;5056033;28;20028;-66
2023/01/01 00:03:35;;;;;;;51.58;27.40;;;;;;;-143.48;63.84;118439.88;5058039;28;20515;-66
2023/01/01 00:06:08;;;;;;;52.25;26.25;;;;;;;-143.48;63.26;118439.88;5056636;28;20024;-66
2023/01/01 00:08:34;;;;;;;64.47;32.17;;;;;;;-143.48;63.61;118439.88;5055992;28;20021;-66
2023/01/01 00:11:01;;;;;;;57.67;27.83;;;;;;;-143.48;62.12;118439.88;5057494;28;20421;-66
2023/01/01 00:13:27;;;;;;;57.25;29.08;;;;;;;-143.48;62.14;118439.88;5056387;28;20032;-66
2023/01/01 00:15:52;;;;;;;47.20;22.95;;;;;;;-143.48;61.09;118439.88;5063760;28;20448;-66
2023/01/01 00:18:17;;;;;;;44.67;23.10;;;;;;;-143.48;61.81;118439.88;5069739;28;20072;-67
2023/01/01 00:20:42;;;;;;;44.75;20.70;;;;;;;-143.48;60.74;118439.88;5069645;28;20024;-66
2023/01/01 00:23:08;;;;;;;43.88;22.35;;;;;;;-143.48;60.70;118439.88;5070016;28;20096;-66
2023/01/01 00:25:33;;;;;;;56.30;28.00;;;;;;;-143.48;61.22;118439.88;5070257;28;20025;-68
2023/01/01 00:27:58;;;;;;;48.72;24.60;;;;;;;-143.48;60.72;118439.88;5071024;28;20086;-70
2023/01/01 00:30:24;;;;;;;44.47;21.58;;;;;;;-143.48;60.48;118439.88;5070184;28;20449;-67
2023/01/01 00:32:49;;;;;;;44.85;22.52;;;;;;;-143.48;60.93;118439.88;5070683;28;20009;-66
2023/01/01 00:35:14;;;;;;;40.80;20.85;;;;;;;-143.48;60.70;118439.88;5069077;28;20025;-68
2023/01/01 00:37:39;;;;;;;41.05;19.65;;;;;;;-143.48;60.67;118439.88;5059203;28;20021;-68
2023/01/01 00:40:05;;;;;;;40.85;20.00;;;;;;;-143.48;61.66;118439.88;5057154;28;20033;-68
2023/01/01 00:42:31;;;;;;;38.60;18.42;;;;;;;-143.48;60.56;118439.88;5055056;28;20366;-68
2023/01/01 00:44:56;;;;;;;43.63;18.23;;;;;;;-143.48;60.95;118439.88;5037953;28;20112;-68
2023/01/01 00:47:22;;;;;;;38.92;18.00;;;;;;;-143.48;60.72;118439.88;5054109;28;20403;-69
2023/01/01 00:49:47;;;;;;;33.25;14.48;;;;;;;-143.48;61.15;118439.88;5053958;28;20435;-69
2023/01/01 00:52:12;;;;;;;36.42;14.98;;;;;;;-143.48;60.52;118439.88;5053838;28;20103;-69
2023/01/01 00:54:37;;;;;;;41.72;16.38;;;;;;;-143.48;61.23;118439.88;5053758;28;20415;-69
2023/01/01 00:57:03;;;;;;;35.88;15.07;;;;;;;-143.48;61.07;118439.88;5053552;28;20075;-68
2023/01/01 00:59:28;;;;;;;27.00;12.93;;;;;;;-143.48;60.50;118439.88;5053615;28;20530;-69
2023/01/01 01:01:54;;;;;;;34.72;12.82;;;;;;;-143.48;61.13;118439.88;5056947;28;20021;-69
2023/01/01 01:04:19;;;;;;;29.50;12.73;;;;;;;-143.48;60.75;118439.88;5053741;28;20032;-67
2023/01/01 01:06:44;;;;;;;27.95;11.80;;;;;;;-143.48;60.74;118439.88;5054569;28;20055;-67
2023/01/01 01:09:09;;;;;;;23.33;10.02;;;;;;;-143.48;60.20;118439.88;5054318;28;20107;-67
2023/01/01 01:11:35;;;;;;;23.13;9.55;;;;;;;-143.48;59.79;118439.88;5052945;28;20035;-67
2023/01/01 01:14:00;;;;;;;23.83;9.43;;;;;;;-143.48;60.14;118439.88;5053041;28;20361;-67
2023/01/01 01:16:29;;;;;;;24.55;8.73;;;;;;;-143.48;59.56;118439.88;5053097;28;20032;-67
2023/01/01 01:19:00;;;;;;;18.90;8.50;;;;;;;-143.48;60.14;118439.88;5052648;28;20017;-67
2023/01/01 01:21:27;;;;;;;24.13;8.75;;;;;;;-143.48;59.39;118439.88;5052832;28;20484;-67
2023/01/01 01:23:53;;;;;;;27.23;8.68;;;;;;;-143.48;59.55;118439.88;5036168;28;20086;-67
2023/01/01 01:26:24;;;;;;;23.95;8.43;;;;;;;-143.48;59.93;118439.88;5059817;28;20029;-67
2023/01/01 01:28:50;;;;;;;23.77;8.38;;;;;;;-143.48;60.88;118439.88;5019312;28;20069;-67
2023/01/01 01:31:16;;;;;;;16.58;6.68;;;;;;;-143.48;60.95;118439.88;5018274;28;20153;-67
2023/01/01 01:33:43;;;;;;;27.58;7.13;;;;;;;-143.48;61.68;118439.88;5018465;28;20096;-67
2023/01/01 01:36:09;;;;;;;13.93;6.50;;;;;;;-143.48;61.19;118439.88;5018170;28;20446;-67
2023/01/01 01:38:35;;;;;;;15.70;5.75;;;;;;;-143.48;61.33;118439.88;5018048;28;20018;-67
2023/01/01 01:41:00;;;;;;;18.65;5.97;;;;;;;-143.48;60.79;118439.88;5018243;28;20029;-67
2023/01/01 01:43:31;;;;;;;23.73;6.10;;;;;;;-143.48;60.68;118439.88;5018555;28;20319;-67
2023/01/01 01:46:03;;;;;;;15.20;6.90;;;;;;;-143.48;60.79;118439.88;5019851;28;20026;-67
2023/01/01 01:48:34;;;;;;;17.38;6.00;;;;;;;-143.48;60.32;118439.88;5020012;28;20021;-68
2023/01/01 01:50:59;;;;;;;21.55;6.18;;;;;;;-143.48;60.40;118439.88;5019723;28;20026;-68
2023/01/01 01:53:29;;;;;;;14.98;5.50;;;;;;;-143.48;60.75;118439.88;5017992;28;20041;-67
2023/01/01 01:55:59;;;;;;;19.63;5.38;;;;;;;-143.48;60.86;118439.88;5019850;28;20425;-68
2023/01/01 01:58:27;;;;;;;17.23;4.43;;;;;;;-143.48;60.72;118439.88;5019811;28;20026;-68
2023/01/01 02:00:53;;;;;;;20.20;5.53;;;;;;;-143.48;60.76;118439.88;5018428;28;20026;-67
2023/01/01 02:03:31;;;;;;;14.95;4.88;;;;;;;-143.48;61.08;118439.88;5020540;28;20152;-68
2023/01/01 02:05:57;;;;;;;16.48;5.22;;;;;;;-143.48;61.39;118439.88;5019849;28;20401;-68
2023/01/01 02:08:24;;;;;;;13.98;4.10;;;;;;;-143.48;60.60;118439.88;5018424;28;20432;-67
2023/01/01 02:10:49;;;;;;;14.40;4.30;;;;;;;-143.48;60.02;118439.88;5019818;28;20092;-67
2023/01/01 02:13:15;;;;;;;43.85;18.55;;;;;;;-143.48;60.31;118439.88;5019825;28;20287;-67
2023/01/01 02:15:51;;;;;;;14.07;3.95;;;;;;;-143.48;59.53;118439.88;5018547;28;20021;-67
2023/01/01 02:18:25;;;;;;;14.07;4.38;;;;;;;-143.48;60.62;118439.88;5019596;28;20030;-67
2023/01/01 02:21:01;;;;;;;12.32;3.60;;;;;;;-143.48;59.71;118439.88;5019792;28;20026;-67
2023/01/01 02:23:59;;;;;;;11.07;4.30;;;;;;;-143.48;59.44;118439.88;5021200;28;20038;-67
2023/01/01 02:26:47;;;;;;;14.75;3.75;;;;;;;-143.48;59.96;118439.88;5020607;28;20022;-67
2023/01/01 02:29:24;;;;;;;16.85;4.25;;;;;;;-143.48;59.41;118439.88;5049752;28;20094;-67
2023/01/01 02:32:06;;;;;;;16.55;3.72;;;;;;;-143.48;59.08;118439.88;5059229;28;20059;-67
2023/01/01 02:34:38;;;;;;;13.07;3.70;;;;;;;-143.48;59.30;118439.88;5059324;28;20028;-67
2023/01/01 02:37:07;;;;;;;12.13;4.28;;;;;;;-143.48;59.25;118439.88;5055053;28;20024;-67
2023/01/01 02:39:36;;;;;;;16.27;4.47;;;;;;;-143.48;59.65;118439.88;5056121;28;20029;-67
2023/01/01 02:42:04;;;;;;;20.50;4.43;;;;;;;-143.48;59.63;118439.88;5056076;28;20021;-68
2023/01/01 02:44:33;;;;;;;20.05;4.70;;;;;;;-143.48;59.35;118439.88;5056104;28;20028;-67
2023/01/01 02:47:06;;;;;;;9.73;3.85;;;;;;;-143.48;59.28;118439.88;5037947;28;20144;-67
2023/01/01 02:49:33;;;;;;;17.25;3.55;;;;;;;-143.48;58.72;118439.88;5055808;28;20067;-67
2023/01/01 02:52:07;;;;;;;8.35;2.80;;;;;;;-143.48;59.31;118439.88;5055852;28;20384;-67
2023/01/01 02:55:06;;;;;;;9.98;3.30;;;;;;;-143.48;58.93;118439.88;5037801;28;20027;-67
2023/01/01 02:57:48;;;;;;;10.32;2.83;;;;;;;-143.48;59.26;118439.88;5055729;28;20499;-66
2023/01/01 03:00:30;;;;;;;8.52;2.97;;;;;;;-143.48;59.17;118439.88;5055750;28;20063;-67
2023/01/01 03:03:13;;;;;;;12.63;3.20;;;;;;;-143.48;59.03;118439.88;5055574;28;20024;-67
2023/01/01 03:08:41;;;;;;;10.73;2.80;;;;;;;-143.48;59.00;118439.88;5055596;28;20597;-67
2023/01/01 03:11:13;;;;;;;9.15;2.97;;;;;;;-143.48;59.66;118439.88;5037643;28;20028;-67
2023/01/01 03:14:04;;;;;;;11.88;2.75;;;;;;;-143.48;59.92;118439.88;5037529;28;20036;-67
2023/01/01 03:16:31;;;;;;;10.80;2.90;;;;;;;-143.48;59.83;118439.88;5037386;28;20024;-67
2023/01/01 03:19:19;;;;;;;11.82;2.33;;;;;;;-143.48;59.57;118439.88;5037258;28;20033;-66
2023/01/01 03:21:54;;;;;;;13.40;2.90;;;;;;;-143.48;60.01;118439.88;5055622;28;20021;-67
2023/01/01 03:24:32;;;;;;;13.13;2.97;;;;;;;-143.48;60.50;118439.88;5055169;28;20029;-67
2023/01/01 03:27:03;;;;;;;9.85;2.50;;;;;;;-143.48;60.53;118439.88;5055040;28;20045;-67
2023/01/01 03:29:32;;;;;;;11.52;2.30;;;;;;;-143.48;59.92;118439.88;5055333;28;20025;-67
2023/01/01 03:32:00;;;;;;;9.93;2.97;;;;;;;-143.48;60.12;118439.88;5055098;28;20036;-67
2023/01/01 03:34:34;;;;;;;11.38;2.72;;;;;;;-143.48;59.93;118439.88;5055131;28;20029;-67
2023/01/01 03:37:05;;;;;;;9.90;2.72;;;;;;;-143.48;63.50;118439.88;5054973;28;20036;-67
2023/01/01 03:39:36;;;;;;;13.30;2.70;;;;;;;-143.48;65.56;118439.88;5036967;28;20021;-67
2023/01/01 03:42:14;;;;;;;16.10;2.80;;;;;;;-143.48;65.30;118439.88;5054715;28;20025;-68
2023/01/01 03:44:47;;;;;;;11.43;2.50;;;;;;;-143.48;65.96;118439.88;5054876;28;20028;-67
2023/01/01 03:47:13;;;;;;;15.02;2.78;;;;;;;-143.48;64.96;118439.88;5054444;28;20024;-66
2023/01/01 03:49:39;;;;;;;7.57;2.50;;;;;;;-143.48;63.90;118439.88;5054704;28;20025;-66
2023/01/01 03:52:14;;;;;;;9.73;2.38;;;;;;;-143.48;63.93;118439.88;5054582;28;20071;-66
2023/01/01 03:54:57;;;;;;;8.90;2.25;;;;;;;-143.48;63.61;118439.88;5055036;28;20427;-66
2023/01/01 03:57:44;;;;;;;12.95;2.47;;;;;;;-143.48;64.57;118439.88;5054664;28;20029;-67
2023/01/01 04:00:15;;;;;;;10.13;2.55;;;;;;;-143.48;65.04;118439.88;5054708;28;20029;-67
2023/01/01 04:03:07;;;;;;;6.28;2.10;;;;;;;-143.48;64.80;118439.88;5054286;28;20028;-66
2023/01/01 04:05:36;;;;;;;10.40;2.33;;;;;;;-143.48;65.36;118439.88;5054403;28;20051;-66
2023/01/01 04:08:03;;;;;;;16.42;4.15;;;;;;;-143.48;66.06;118439.88;5054443;28;20059;-67
2023/01/01 04:10:31;;;;;;;9.18;2.00;;;;;;;-143.48;65.99;118439.88;5054227;28;20024;-67
2023/01/01 04:12:57;;;;;;;10.15;2.10;;;;;;;-143.48;65.13;118439.88;5054396;28;20082;-66
2023/01/01 04:15:25;;;;;;;8.88;2.10;;;;;;;-143.48;63.77;118439.88;5054239;28;20029;-67
2023/01/01 04:17:52;;;;;;;11.15;2.00;;;;;;;-143.48;65.10;118439.88;5054125;28;20032;-67
2023/01/01 04:20:18;;;;;;;13.32;2.33;;;;;;;-143.48;64.49;118439.88;5054121;28;20029;-66
2023/01/01 04:22:44;;;;;;;13.60;2.35;;;;;;;-143.48;64.94;118439.88;5036120;28;20074;-66
2023/01/01 04:25:10;;;;;;;6.75;1.92;;;;;;;-143.48;65.43;118439.88;5036134;28;20017;-66
2023/01/01 04:27:36;;;;;;;10.55;2.25;;;;;;;-143.48;64.72;118439.88;5053821;28;20056;-66
2023/01/01 04:30:03;;;;;;;6.35;2.10;;;;;;;-143.48;65.19;118439.88;5053874;28;20478;-66
2023/01/01 04:32:29;;;;;;;7.65;1.80;;;;;;;-143.48;65.30;118439.88;5053792;28;20060;-66
2023/01/01 04:34:54;;;;;;;8.07;2.38;;;;;;;-143.48;65.87;118439.88;5053809;28;20059;-67
2023/01/01 04:37:19;;;;;;;7.43;2.30;;;;;;;-143.48;66.05;118439.88;5053793;28;20028;-67
2023/01/01 04:39:45;;;;;;;7.32;2.08;;;;;;;-143.48;66.28;118439.88;5053752;28;20021;-66
2023/01/01 04:42:10;;;;;;;8.45;2.03;;;;;;;-143.48;66.65;118439.88;5053680;28;20103;-66
2023/01/01 04:44:35;;;;;;;7.78;1.95;;;;;;;-143.48;67.03;118439.88;5053707;28;20033;-66
2023/01/01 04:47:01;;;;;;;11.48;3.08;;;;;;;-143.48;67.97;118439.88;5053638;28;20021;-67
2023/01/01 04:49:26;;;;;;;8.05;1.85;;;;;;;-143.48;69.03;118439.88;5053681;28;20507;-66
2023/01/01 04:51:51;;;;;;;9.75;2.58;;;;;;;-143.48;69.27;118439.88;5053597;28;20104;-66
2023/01/01 04:54:17;;;;;;;9.63;2.55;;;;;;;-143.48;69.99;118439.88;5053522;28;20029;-67
2023/01/01 04:56:42;;;;;;;8.63;2.30;;;;;;;-143.48;71.34;118439.88;5053465;28;20475;-66
2023/01/01 04:59:07;;;;;;;10.93;2.28;;;;;;;-143.48;72.74;118439.88;5052791;28;20425;-67
2023/01/01 05:01:33;;;;;;;10.75;2.25;;;;;;;-143.48;73.79;118439.88;5053361;28;20086;-66
2023/01/01 05:03:59;;;;;;;8.52;2.22;;;;;;;-143.48;74.73;118439.88;5053414;28;20107;-67
2023/01/01 05:06:25;;;;;;;11.25;2.60;;;;;;;-143.48;75.50;118439.88;5053439;28;20025;-66
2023/01/01 05:08:56;;;;;;;10.13;2.40;;;;;;;-143.48;76.33;118439.88;5053381;28;20100;-66
2023/01/01 05:11:25;;;;;;;13.77;2.67;;;;;;;-143.48;75.90;118439.88;5053493;28;20515;-67
2023/01/01 05:13:52;;;;;;;8.57;2.05;;;;;;;-143.48;75.05;118439.88;5035426;28;20021;-67
2023/01/01 05:16:20;;;;;;;9.07;2.20;;;;;;;-143.48;75.12;118439.88;5035435;28;20029;-66
2023/01/01 05:18:46;;;;;;;16.13;2.17;;;;;;;-143.48;72.87;118439.88;5053269;28;20480;-67
2023/01/01 05:21:14;;;;;;;14.02;2.45;;;;;;;-143.48;72.67;118439.88;5053176;28;20021;-67
2023/01/01 05:23:39;;;;;;;11.25;2.45;;;;;;;-143.48;72.41;118439.88;5053071;28;20060;-67
2023/01/01 05:26:32;;;;;;;11.55;2.08;;;;;;;-143.48;71.99;118439.88;5053084;28;20461;-67
2023/01/01 05:28:58;;;;;;;9.80;2.10;;;;;;;-143.48;71.72;118439.88;5050785;28;20041;-67
2023/01/01 05:31:28;;;;;;;10.43;2.05;;;;;;;-143.48;70.64;118439.88;5052962;28;20108;-67
2023/01/01 05:33:54;;;;;;;13.00;2.70;;;;;;;-143.48;70.72;118439.88;5053145;28;20447;-67
2023/01/01 05:36:26;;;;;;;10.75;2.20;;;;;;;-143.48;70.31;118439.88;5053050;28;20028;-67
2023/01/01 05:38:52;;;;;;;8.80;2.07;;;;;;;-143.48;70.13;118439.88;5035004;28;20036;-66
2023/01/01 05:41:19;;;;;;;7.97;2.10;;;;;;;-143.48;69.62;118439.88;5053228;28;20029;-67
2023/01/01 05:43:45;;;;;;;10.63;2.17;;;;;;;-143.48;68.57;118439.88;5035041;28;20028;-67
2023/01/01 05:46:19;;;;;;;10.13;2.10;;;;;;;-143.48;67.68;118439.88;5053153;28;20029;-67
2023/01/01 05:48:44;;;;;;;9.85;2.38;;;;;;;-143.48;67.10;118439.88;5035041;28;20079;-67
2023/01/01 05:51:23;;;;;;;10.43;2.13;;;;;;;-143.48;66.83;118439.88;5053222;28;20063;-67
2023/01/01 05:53:49;;;;;;;11.25;1.88;;;;;;;-143.48;67.07;118439.88;5052819;28;20056;-66
2023/01/01 05:56:15;;;;;;;4.60;1.77;;;;;;;-143.48;66.65;118439.88;5052962;28;20497;-67
2023/01/01 05:58:42;;;;;;;7.88;1.90;;;;;;;-143.48;66.75;118439.88;5052598;28;20029;-67
2023/01/01 06:01:19;;;;;;;10.13;1.85;;;;;;;-143.48;66.51;118439.88;5052869;28;20024;-67
2023/01/01 06:03:47;;;;;;;8.73;1.88;;;;;;;-143.48;66.22;118439.88;5052705;28;20146;-67
2023/01/01 06:06:15;;;;;;;8.00;1.63;;;;;;;-143.48;66.30;118439.88;5052849;28;20031;-66
2023/01/01 06:08:41;;;;;;;10.05;2.10;;;;;;;-143.48;66.06;118439.88;5052615;28;20017;-67
2023/01/01 06:11:09;;;;;;;10.35;1.65;;;;;;;-143.48;66.45;118439.88;5036995;28;20024;-67
2023/01/01 06:13:35;;;;;;;11.18;1.85;;;;;;;-143.48;66.67;118439.88;5056538;28;20465;-66
2023/01/01 06:16:01;;;;;;;10.55;1.90;;;;;;;-143.48;66.54;118439.88;5056422;28;20025;-67
2023/01/01 06:18:32;;;;;;;9.85;1.70;;;;;;;-143.48;66.90;118439.88;5056300;28;20052;-67
2023/01/01 06:21:15;;;;;;;9.40;1.70;;;;;;;-143.48;67.00;118439.88;5056386;28;20029;-67
2023/01/01 06:23:40;;;;;;;;;;;;;;;-143.48;66.92;118439.88;5038804;28;20021;-66
2023/01/01 06:26:12;;;;;;;10.40;2.05;;;;;;;-143.48;67.02;118439.88;5056300;28;19935;-67
2023/01/01 06:28:38;;;;;;;13.15;2.00;;;;;;;-143.48;66.74;118439.88;5056085;28;20523;-67
2023/01/01 06:31:05;;;;;;;7.95;2.13;;;;;;;-143.48;67.29;118439.88;5038250;28;20025;-67
2023/01/01 06:33:31;;;;;;;10.68;1.75;;;;;;;-143.48;67.18;118439.88;5056135;28;20087;-67
2023/01/01 06:35:57;;;;;;;12.48;1.85;;;;;;;-143.48;67.06;118439.88;5056175;28;20033;-67
2023/01/01 06:38:23;;;;;;;17.65;2.10;;;;;;;-143.48;66.92;118439.88;5055867;28;20452;-67
2023/01/01 06:40:59;;;;;;;9.35;1.60;;;;;;;-143.48;67.29;118439.88;5038059;28;20112;-67
2023/01/01 06:43:25;;;;;;;10.73;1.77;;;;;;;-143.48;68.16;118439.88;5056115;28;20047;-67
2023/01/01 06:46:02;;;;;;;11.48;1.65;;;;;;;-143.48;67.78;118439.88;5055873;28;20104;-67
2023/01/01 06:48:29;;;;;;;17.00;2.47;;;;;;;-143.48;67.54;118439.88;5055924;28;20476;-67
2023/01/01 06:50:54;;;;;;;8.50;1.65;;;;;;;-143.48;68.04;118439.88;5055790;28;20100;-67
2023/01/01 06:53:23;;;;;;;9.70;1.95;;;;;;;-143.48;67.75;118439.88;5037863;28;20063;-67
2023/01/01 06:55:49;;;;;;;11.40;1.90;;;;;;;-143.48;67.70;118439.88;5055744;28;20368;-67
2023/01/01 06:58:14;;;;;;;6.97;1.40;;;;;;;-143.48;67.24;118439.88;5055610;28;20036;-67
2023/01/01 07:00:39;;;;;;;15.63;1.70;;;;;;;-143.48;68.11;118439.88;5055706;28;20072;-66
2023/01/01 07:03:04;;;;;;;9.93;2.00;;;;;;;-143.48;67.31;118439.88;5055483;28;20388;-66
2023/01/01 07:05:30;;;;;;;6.05;1.23;;;;;;;-143.48;67.68;118439.88;5055560;28;20511;-67
2023/01/01 07:07:55;;;;;;;9.25;1.42;;;;;;;-143.48;67.55;118439.88;5055674;28;20029;-67
2023/01/01 07:10:20;;;;;;;11.07;1.83;;;;;;;-143.48;67.13;118439.88;5037638;28;20430;-67
2023/01/01 07:12:45;;;;;;;10.77;1.80;;;;;;;-143.48;67.23;118439.88;5055519;28;20025;-67
2023/01/01 07:15:11;;;;;;;11.10;1.45;;;;;;;-143.48;67.58;118439.88;5055300;28;20103;-66
2023/01/01 07:17:36;;;;;;;6.93;1.58;;;;;;;-143.48;67.82;118439.88;5037459;28;20031;-67
2023/01/01 07:20:01;;;;;;;8.32;1.48;;;;;;;-143.48;67.18;118439.88;5055275;28;20013;-67
2023/01/01 07:22:27;;;;;;;10.93;1.70;;;;;;;-143.48;66.50;118439.88;5054486;28;20017;-67
2023/01/01 07:24:52;;;;;;;8.50;1.55;;;;;;;-143.48;66.74;118439.88;5055181;28;20036;-67
2023/01/01 07:27:17;;;;;;;10.27;1.70;;;;;;;-143.48;66.96;118439.88;5055034;28;20049;-67
2023/01/01 07:29:43;;;;;;;9.52;1.63;;;;;;;-143.48;66.85;118439.88;5055068;28;20075;-67
2023/01/01 07:32:14;;;;;;;6.88;1.40;;;;;;;-143.48;66.74;118439.88;5037069;28;20451;-68
2023/01/01 07:34:39;;;;;;;6.85;1.58;;;;;;;-143.48;67.06;118439.88;5055009;28;20033;-67
2023/01/01 07:37:04;;;;;;;10.55;1.50;;;;;;;-143.48;67.55;118439.88;5055104;28;20071;-67
2023/01/01 07:39:30;;;;;;;12.52;1.73;;;;;;;-143.48;67.79;118439.88;5054888;28;20025;-67
2023/01/01 07:41:55;;;;;;;8.57;1.77;;;;;;;-143.48;67.83;118439.88;5054757;28;20024;-67
2023/01/01 07:44:20;;;;;;;12.70;1.65;;;;;;;-143.48;67.98;118439.88;5054846;28;20060;-67
2023/01/01 07:46:46;;;;;;;5.35;1.52;;;;;;;-143.48;67.50;118439.88;5054743;28;20025;-67
2023/01/01 07:49:11;;;;;;;10.80;1.52;;;;;;;-143.48;68.02;118439.88;5036842;28;20155;-67
2023/01/01 07:51:36;;;;;;;9.18;1.45;;;;;;;-143.48;68.15;118439.88;5054950;28;20056;-67
2023/01/01 07:54:01;;;;;;;7.15;1.52;;;;;;;-143.48;67.50;118439.88;5054600;28;20031;-67
2023/01/01 07:56:27;;;;;;;8.75;1.45;;;;;;;-143.48;68.08;118439.88;5054487;28;20400;-67
2023/01/01 07:58:52;;;;;;;9.73;1.67;;;;;;;-143.48;67.93;118439.88;5054455;28;20029;-67
2023/01/01 08:01:18;;;;;;;5.95;1.38;;;;;;;-143.48;68.34;118439.88;5054418;28;20027;-67
2023/01/01 08:03:43;;;;;;;10.20;1.50;;;;;;;-143.48;68.13;118439.88;5054417;28;20033;-67
2023/01/01 08:06:10;;;;;;;10.50;1.45;;;;;;;-143.48;68.50;118439.88;5054307;28;20025;-69
2023/01/01 08:08:35;;;;;;;8.55;1.40;;;;;;;-143.48;68.46;118439.88;5036633;28;20055;-67
2023/01/01 08:11:01;;;;;;;9.93;1.63;;;;;;;-143.48;68.67;118439.88;5054331;28;20020;-67
2023/01/01 08:13:26;;;;;;;14.25;1.70;;;;;;;-143.48;68.81;118439.88;5054246;28;20365;-67
2023/01/01 08:15:54;;;;;;;10.02;1.67;;;;;;;-143.48;68.43;118439.88;5054154;28;20021;-67
2023/01/01 08:18:19;;;;;;;9.75;1.70;;;;;;;-143.48;69.01;118439.88;5054086;28;20112;-67
2023/01/01 08:20:45;;;;;;;11.90;1.60;;;;;;;-143.48;68.91;118439.88;5054191;28;20055;-67
2023/01/01 08:23:10;;;;;;;10.93;1.35;;;;;;;-143.48;68.97;118439.88;5054256;28;20039;-67
2023/01/01 08:25:35;;;;;;;11.05;1.38;;;;;;;-143.48;69.10;118439.88;5054006;28;20045;-67
2023/01/01 08:28:01;;;;;;;9.27;1.30;;;;;;;-143.48;69.38;118439.88;5053712;28;20041;-67
2023/01/01 08:30:26;;;;;;;12.07;1.60;;;;;;;-143.48;68.76;118439.88;5036058;28;20063;-67
2023/01/01 08:32:51;;;;;;;9.35;1.58;;;;;;;-143.48;68.61;118439.88;5053771;28;20035;-67
2023/01/01 08:35:17;;;;;;;8.60;1.35;;;;;;;-143.48;68.40;118439.88;5052924;28;20438;-67
2023/01/01 08:37:42;;;;;;;8.15;1.35;;;;;;;-143.48;68.34;118439.88;5053888;28;20025;-68
2023/01/01 08:40:10;;;;;;;11.55;1.65;;;;;;;-143.48;68.30;118439.88;5053677;28;20159;-67
2023/01/01 08:42:35;;;;;;;10.60;1.58;;;;;;;-143.48;68.38;118439.88;5053750;28;20062;-67
2023/01/01 08:45:01;;;;;;;14.60;1.50;;;;;;;-143.48;68.43;118439.88;5053769;28;20452;-67
2023/01/01 08:47:26;;;;;;;7.43;1.40;;;;;;;-143.48;68.40;118439.88;5053639;28;20139;-67
2023/01/01 08:49:52;;;;;;;9.43;1.58;;;;;;;-143.48;68.45;118439.88;5053590;28;20107;-67
2023/01/01 08:52:18;;;;;;;8.00;1.60;;;;;;;-143.48;68.11;118439.88;5057532;28;20025;-67
2023/01/01 08:54:44;;;;;;;15.25;1.90;;;;;;;-143.48;68.06;118439.88;5038969;28;20024;-67
2023/01/01 08:57:10;;;;;;;9.23;1.63;;;;;;;-143.48;67.94;118439.88;5055019;28;20052;-68
2023/01/01 08:59:36;;;;;;;10.27;1.52;;;;;;;-143.48;68.40;118439.88;5054759;28;20047;-67
2023/01/01 09:02:01;;;;;;;12.77;2.67;;;;;;;-143.48;68.01;118439.88;5054663;28;20095;-67
2023/01/01 09:04:27;;;;;;;8.27;1.50;;;;;;;-143.48;67.74;118439.88;5054760;28;20047;-67
2023/01/01 09:06:52;;;;;;;8.32;1.90;;;;;;;-143.48;67.77;118439.88;5053542;28;20068;-67
2023/01/01 09:09:18;;;;;;;16.48;1.75;;;;;;;-143.48;68.04;118439.88;5054467;28;20056;-67
2023/01/01 09:11:51;;;;;;;13.13;2.00;;;;;;;-143.48;67.73;118439.88;5055411;28;20082;-68
2023/01/01 09:14:16;;;;;;;9.90;1.50;;;;;;;-143.48;67.21;118439.88;5035533;28;20071;-67
2023/01/01 09:16:41;;;;;;;10.30;1.75;;;;;;;-143.48;67.07;118439.88;5036148;28;20531;-67
2023/01/01 09:19:07;;;;;;;14.15;1.92;;;;;;;-143.48;66.81;118439.88;5036505;28;20087;-67
2023/01/01 09:21:32;;;;;;;11.68;1.60;;;;;;;-143.48;66.79;118439.88;5055949;28;20104;-67
2023/01/01 09:23:57;;;;;;;10.07;1.80;;;;;;;-143.48;67.15;118439.88;5053364;28;20111;-67
2023/01/01 09:26:23;;;;;;;9.48;1.55;;;;;;;-143.48;66.34;118439.88;5053695;28;20029;-67
2023/01/01 09:28:48;;;;;;;8.52;1.80;;;;;;;-143.48;66.60;118439.88;5036006;28;20021;-67
2023/01/01 09:31:13;;;;;;;11.77;2.08;;;;;;;-143.48;65.77;118439.88;5053337;28;20017;-67
2023/01/01 09:33:39;;;;;;;15.80;1.85;;;;;;;-143.48;65.77;118439.88;5053044;28;20045;-68
2023/01/01 09:36:12;;;;;;;13.40;1.83;;;;;;;-143.48;65.08;118439.88;5035462;28;20146;-67
2023/01/01 09:38:38;;;;;;;9.50;1.80;;;;;;;-143.48;65.17;118439.88;5052923;28;20021;-67
2023/01/01 09:41:15;;;;;;;12.15;2.00;;;;;;;-143.48;64.74;118439.88;5052989;28;20044;-67
2023/01/01 09:44:08;;;;;;;16.15;2.20;;;;;;;-143.48;65.02;118439.88;5034973;28;20123;-68
2023/01/01 09:46:35;;;;;;;11.18;1.90;;;;;;;-143.48;65.10;118439.88;5056005;28;20017;-68
2023/01/01 09:49:10;;;;;;;10.25;2.00;;;;;;;-143.48;64.70;118439.88;5056740;28;20464;-67
2023/01/01 09:51:36;;;;;;;13.68;3.00;;;;;;;-143.48;64.73;118439.88;5057589;28;20546;-67
2023/01/01 09:54:43;;;;;;;9.95;2.25;;;;;;;-143.48;64.55;118439.88;5056708;28;20032;-67
2023/01/01 09:57:11;;;;;;;8.07;2.50;;;;;;;-143.48;64.45;118439.88;5048851;28;20045;-68
2023/01/01 09:59:37;;;;;;;10.30;1.90;;;;;;;-143.48;65.08;118439.88;5056757;28;20029;-67
2023/01/01 10:02:30;;;;;;;11.95;2.10;;;;;;;-143.48;64.51;118439.88;5059440;28;20059;-67
2023/01/01 10:04:58;;;;;;;;;;;;;;;-143.48;64.89;118439.88;5042183;28;20432;-66
2023/01/01 10:07:32;;;;;;;13.48;2.30;;;;;;;-143.48;64.68;118439.88;5060445;28;19909;-66
2023/01/01 10:10:12;;;;;;;13.05;2.40;;;;;;;-143.48;65.43;118439.88;5064469;28;20009;-67
2023/01/01 10:12:57;;;;;;;10.32;1.58;;;;;;;-143.48;65.54;118439.88;5061221;28;20063;-66
2023/01/01 10:15:28;;;;;;;12.93;1.63;;;;;;;-143.48;65.65;118439.88;5060259;28;20029;-67
2023/01/01 10:17:58;;;;;;;10.85;2.03;;;;;;;-143.48;64.98;118439.88;5059977;28;20369;-66
2023/01/01 10:20:30;;;;;;;12.02;2.20;;;;;;;-143.48;63.56;118439.88;5060032;28;20433;-66
2023/01/01 10:23:07;;;;;;;13.82;2.10;;;;;;;-143.48;58.39;118439.88;5059918;28;20112;-67
2023/01/01 10:25:34;;;;;;;14.90;2.20;;;;;;;-143.48;60.13;118439.88;5059265;28;20515;-68
2023/01/01 10:28:05;;;;;;;11.23;2.08;;;;;;;-143.48;62.08;118439.88;5059802;28;20041;-68
2023/01/01 10:30:31;;;;;;;16.55;2.13;;;;;;;-143.48;63.25;118439.88;5058703;28;20021;-67
2023/01/01 10:32:57;;;;;;;12.15;2.17;;;;;;;-143.48;63.29;118439.88;5059278;28;20110;-67
2023/01/01 10:35:38;;;;;;;12.43;2.45;;;;;;;-143.48;63.32;118439.88;5060025;28;20028;-67
2023/01/01 10:38:07;;;;;;;12.30;2.10;;;;;;;-143.48;63.72;118439.88;5059573;28;20053;-67
2023/01/01 10:40:33;;;;;;;14.98;2.38;;;;;;;-143.48;64.05;118439.88;5059400;28;20021;-67
2023/01/01 10:43:01;;;;;;;12.13;2.20;;;;;;;-143.48;59.87;118439.88;5041613;28;20029;-67
2023/01/01 10:45:42;;;;;;;6.60;1.88;;;;;;;-143.48;54.47;118439.88;5041543;28;20029;-68
2023/01/01 10:48:22;;;;;;;9.32;2.40;;;;;;;-143.48;51.39;118439.88;5058610;28;20029;-66
2023/01/01 10:50:49;;;;;;;15.07;2.30;;;;;;;-143.48;59.70;118439.88;5058917;28;20029;-68
2023/01/01 10:53:24;;;;;;;12.25;2.45;;;;;;;-143.48;62.57;118439.88;5040917;28;20028;-67
2023/01/01 10:55:57;;;;;;;10.35;2.20;;;;;;;-143.48;63.80;118439.88;5059581;28;20025;-67
2023/01/01 10:58:49;;;;;;;15.68;2.40;;;;;;;-143.48;63.90;118439.88;5058491;28;20488;-67
2023/01/01 11:01:32;;;;;;;12.25;2.05;;;;;;;-143.48;64.51;118439.88;5054672;28;20056;-66
2023/01/01 11:04:02;;;;;;;10.50;2.45;;;;;;;-143.48;66.01;118439.88;5064051;28;20032;-67
2023/01/01 11:06:45;;;;;;;15.93;2.30;;;;;;;-143.48;66.27;118439.88;5060742;28;20059;-67
2023/01/01 11:09:25;;;;;;;18.73;3.08;;;;;;;-143.48;66.75;118439.88;5060187;28;20029;-67
2023/01/01 11:11:59;;;;;;;14.82;2.80;;;;;;;-143.48;67.88;118439.88;5059563;28;20025;-67
2023/01/01 11:14:45;;;;;;;12.30;2.17;;;;;;;-143.48;67.92;118439.88;5059481;28;20025;-67
2023/01/01 11:17:10;;;;;;;12.52;2.03;;;;;;;-143.48;68.48;118439.88;5041730;28;20039;-66